sensor_id;sensor_type;location;lat;lon;timestamp;P1;durP1;ratioP1;P2;durP2;ratioP2
38557;SDS011;24333;42.626;23.308;2023-01-24T02:03:07;11.50;;;4.28;;
38557;SDS011;24333;42.626;23.308;2023-01-24T02:20:51;9.98;;;3.58;;
38557;SDS011;24333;42.626;23.308;2023-01-24T02:23:54;7.57;;;2.97;;
38557;SDS011;24333;42.626;23.308;2023-01-24T02:26:43;10.65;;;4.32;;
38557;SDS011;24333;42.626;23.308;2023-01-24T02:34:53;7.90;;;3.38;;
38557;SDS011;24333;42.626;23.308;2023-01-24T02:38:26;8.68;;;3.05;;
38557;SDS011;24333;42.626;23.308;2023-01-24T03:30:09;15.02;;;3.97;;
38557;SDS011;24333;42.626;23.308;2023-01-24T03:33:11;7.20;;;3.25;;
38557;SDS011;24333;42.626;23.308;2023-01-24T03:36:04;6.68;;;2.70;;
38557;SDS011;24333;42.626;23.308;2023-01-24T03:38:46;13.05;;;4.60;;
38557;SDS011;24333;42.626;23.308;2023-01-24T03:44:28;12.00;;;4.95;;
38557;SDS011;24333;42.626;23.308;2023-01-24T03:47:02;13.90;;;5.55;;
38557;SDS011;24333;42.626;23.308;2023-01-24T03:49:28;9.45;;;4.43;;
38557;SDS011;24333;42.626;23.308;2023-01-24T03:52:35;13.77;;;5.30;;
38557;SDS011;24333;42.626;23.308;2023-01-24T05:45:30;7.55;;;3.03;;
38557;SDS011;24333;42.626;23.308;2023-01-24T05:47:57;6.68;;;3.25;;
38557;SDS011;24333;42.626;23.308;2023-01-24T05:50:23;6.05;;;2.90;;
38557;SDS011;24333;42.626;23.308;2023-01-24T05:58:57;6.03;;;3.00;;
38557;SDS011;24333;42.626;23.308;2023-01-24T06:01:29;5.63;;;3.15;;
38557;SDS011;24333;42.626;23.308;2023-01-24T06:03:57;5.07;;;3.05;;
38557;SDS011;24333;42.626;23.308;2023-01-24T06:06:23;6.25;;;3.25;;
38557;SDS011;24333;42.626;23.308;2023-01-24T06:08:50;4.25;;;2.75;;
38557;SDS011;24333;42.626;23.308;2023-01-24T06:11:17;6.20;;;3.53;;
38557;SDS011;24333;42.626;23.308;2023-01-24T06:13:44;7.60;;;3.25;;
38557;SDS011;24333;42.626;23.308;2023-01-24T06:16:12;4.72;;;2.75;;
38557;SDS011;24333;42.626;23.308;2023-01-24T06:18:39;8.65;;;3.38;;
38557;SDS011;24333;42.626;23.308;2023-01-24T06:21:06;10.80;;;5.65;;
38557;SDS011;24333;42.626;23.308;2023-01-24T06:23:32;5.22;;;2.72;;
38557;SDS011;24333;42.626;23.308;2023-01-24T06:25:58;5.38;;;2.75;;
38557;SDS011;24333;42.626;23.308;2023-01-24T06:28:30;5.13;;;2.78;;
38557;SDS011;24333;42.626;23.308;2023-01-24T06:31:06;7.55;;;2.88;;
38557;SDS011;24333;42.626;23.308;2023-01-24T06:38:58;5.90;;;2.92;;
38557;SDS011;24333;42.626;23.308;2023-01-24T06:41:25;8.23;;;3.05;;
38557;SDS011;24333;42.626;23.308;2023-01-24T06:43:51;5.78;;;2.53;;
38557;SDS011;24333;42.626;23.308;2023-01-24T06:46:18;8.55;;;2.97;;
38557;SDS011;24333;42.626;23.308;2023-01-24T06:48:53;7.20;;;3.05;;
38557;SDS011;24333;42.626;23.308;2023-01-24T06:51:34;5.78;;;2.85;;
38557;SDS011;24333;42.626;23.308;2023-01-24T06:54:37;8.27;;;3.17;;
38557;SDS011;24333;42.626;23.308;2023-01-24T12:20:58;37.92;;;14.95;;
38557;SDS011;24333;42.626;23.308;2023-01-24T14:39:12;22.52;;;8.13;;
38557;SDS011;24333;42.626;23.308;2023-01-24T14:41:45;37.35;;;12.45;;
38557;SDS011;24333;42.626;23.308;2023-01-24T14:49:58;101.95;;;21.38;;
38557;SDS011;24333;42.626;23.308;2023-01-24T14:52:37;98.03;;;19.67;;
38557;SDS011;24333;42.626;23.308;2023-01-24T14:55:22;79.43;;;17.75;;
38557;SDS011;24333;42.626;23.308;2023-01-24T14:57:56;70.32;;;27.38;;
38557;SDS011;24333;42.626;23.308;2023-01-24T15:00:31;22.98;;;9.32;;
38557;SDS011;24333;42.626;23.308;2023-01-24T15:03:00;107.07;;;23.10;;
38557;SDS011;24333;42.626;23.308;2023-01-24T15:05:34;123.95;;;30.63;;
38557;SDS011;24333;42.626;23.308;2023-01-24T15:08:03;48.90;;;18.48;;
38557;SDS011;24333;42.626;23.308;2023-01-24T15:10:33;25.48;;;10.55;;
38557;SDS011;24333;42.626;23.308;2023-01-24T15:13:01;31.58;;;11.93;;
38557;SDS011;24333;42.626;23.308;2023-01-24T15:15:31;25.52;;;10.10;;
38557;SDS011;24333;42.626;23.308;2023-01-24T15:18:00;24.13;;;10.10;;
38557;SDS011;24333;42.626;23.308;2023-01-24T15:20:47;204.90;;;56.95;;
38557;SDS011;24333;42.626;23.308;2023-01-24T15:23:15;100.45;;;34.95;;
38557;SDS011;24333;42.626;23.308;2023-01-24T15:25:45;46.20;;;17.95;;
38557;SDS011;24333;42.626;23.308;2023-01-24T15:28:22;21.23;;;8.90;;
38557;SDS011;24333;42.626;23.308;2023-01-24T15:30:59;21.00;;;8.38;;
38557;SDS011;24333;42.626;23.308;2023-01-24T15:33:38;20.30;;;8.98;;
38557;SDS011;24333;42.626;23.308;2023-01-24T15:36:18;42.08;;;18.05;;
38557;SDS011;24333;42.626;23.308;2023-01-24T15:38:47;31.85;;;10.75;;
38557;SDS011;24333;42.626;23.308;2023-01-24T15:41:28;42.75;;;17.60;;
38557;SDS011;24333;42.626;23.308;2023-01-24T15:44:28;38.60;;;16.60;;
38557;SDS011;24333;42.626;23.308;2023-01-24T15:46:55;31.30;;;11.35;;
38557;SDS011;24333;42.626;23.308;2023-01-24T15:49:40;41.05;;;17.80;;
38557;SDS011;24333;42.626;23.308;2023-01-24T15:52:22;41.70;;;17.17;;
38557;SDS011;24333;42.626;23.308;2023-01-24T15:54:49;67.88;;;24.85;;
38557;SDS011;24333;42.626;23.308;2023-01-24T15:57:30;48.28;;;19.58;;
38557;SDS011;24333;42.626;23.308;2023-01-24T15:59:59;44.95;;;19.23;;
38557;SDS011;24333;42.626;23.308;2023-01-24T16:02:28;54.50;;;24.08;;
38557;SDS011;24333;42.626;23.308;2023-01-24T16:04:54;48.05;;;21.00;;
38557;SDS011;24333;42.626;23.308;2023-01-24T16:07:20;45.42;;;19.73;;
38557;SDS011;24333;42.626;23.308;2023-01-24T16:09:46;24.27;;;11.45;;
38557;SDS011;24333;42.626;23.308;2023-01-24T16:12:14;23.02;;;10.80;;
38557;SDS011;24333;42.626;23.308;2023-01-24T16:14:44;26.65;;;13.15;;
38557;SDS011;24333;42.626;23.308;2023-01-24T16:17:13;23.10;;;10.43;;
38557;SDS011;24333;42.626;23.308;2023-01-24T16:19:40;22.00;;;10.52;;
38557;SDS011;24333;42.626;23.308;2023-01-24T16:22:05;22.20;;;11.63;;
38557;SDS011;24333;42.626;23.308;2023-01-24T16:24:31;30.52;;;12.82;;
38557;SDS011;24333;42.626;23.308;2023-01-24T16:26:56;25.50;;;11.73;;
38557;SDS011;24333;42.626;23.308;2023-01-24T16:29:23;25.58;;;11.20;;
38557;SDS011;24333;42.626;23.308;2023-01-24T16:31:51;24.45;;;10.27;;
38557;SDS011;24333;42.626;23.308;2023-01-24T16:34:17;23.45;;;10.52;;
38557;SDS011;24333;42.626;23.308;2023-01-24T16:36:43;38.38;;;14.52;;
38557;SDS011;24333;42.626;23.308;2023-01-24T16:39:10;41.25;;;18.45;;
38557;SDS011;24333;42.626;23.308;2023-01-24T16:41:42;72.35;;;29.13;;
38557;SDS011;24333;42.626;23.308;2023-01-24T16:44:08;77.78;;;32.28;;
38557;SDS011;24333;42.626;23.308;2023-01-24T16:46:33;65.45;;;26.52;;
38557;SDS011;24333;42.626;23.308;2023-01-24T16:48:58;82.57;;;31.92;;
38557;SDS011;24333;42.626;23.308;2023-01-24T16:51:24;83.15;;;32.90;;
38557;SDS011;24333;42.626;23.308;2023-01-24T16:53:55;91.80;;;36.88;;
38557;SDS011;24333;42.626;23.308;2023-01-24T16:56:21;48.40;;;22.05;;
38557;SDS011;24333;42.626;23.308;2023-01-24T16:58:47;30.80;;;13.02;;
38557;SDS011;24333;42.626;23.308;2023-01-24T17:01:13;85.25;;;38.75;;
38557;SDS011;24333;42.626;23.308;2023-01-24T17:03:39;76.68;;;25.75;;
38557;SDS011;24333;42.626;23.308;2023-01-24T17:06:08;45.45;;;18.88;;
38557;SDS011;24333;42.626;23.308;2023-01-24T17:08:36;23.08;;;11.60;;
38557;SDS011;24333;42.626;23.308;2023-01-24T17:11:03;39.60;;;13.65;;
38557;SDS011;24333;42.626;23.308;2023-01-24T17:13:30;33.65;;;13.23;;
38557;SDS011;24333;42.626;23.308;2023-01-24T17:15:56;30.45;;;12.63;;
38557;SDS011;24333;42.626;23.308;2023-01-24T17:18:21;39.75;;;14.02;;
38557;SDS011;24333;42.626;23.308;2023-01-24T17:20:47;26.15;;;12.30;;
38557;SDS011;24333;42.626;23.308;2023-01-24T17:23:13;27.63;;;10.98;;
38557;SDS011;24333;42.626;23.308;2023-01-24T17:25:38;27.60;;;11.85;;
38557;SDS011;24333;42.626;23.308;2023-01-24T17:28:04;31.83;;;10.70;;
38557;SDS011;24333;42.626;23.308;2023-01-24T17:30:33;28.17;;;11.07;;
38557;SDS011;24333;42.626;23.308;2023-01-24T17:32:58;26.98;;;11.43;;
38557;SDS011;24333;42.626;23.308;2023-01-24T17:35:24;30.10;;;11.52;;
38557;SDS011;24333;42.626;23.308;2023-01-24T17:37:49;38.17;;;15.77;;
38557;SDS011;24333;42.626;23.308;2023-01-24T17:40:15;45.03;;;16.67;;
38557;SDS011;24333;42.626;23.308;2023-01-24T17:42:41;39.95;;;14.55;;
38557;SDS011;24333;42.626;23.308;2023-01-24T17:45:08;61.03;;;21.88;;
38557;SDS011;24333;42.626;23.308;2023-01-24T17:47:34;54.13;;;20.80;;
38557;SDS011;24333;42.626;23.308;2023-01-24T17:49:59;75.10;;;28.45;;
38557;SDS011;24333;42.626;23.308;2023-01-24T17:52:25;64.32;;;23.00;;
38557;SDS011;24333;42.626;23.308;2023-01-24T18:14:16;101.43;;;32.40;;
38557;SDS011;24333;42.626;23.308;2023-01-24T18:16:43;51.05;;;19.35;;
38557;SDS011;24333;42.626;23.308;2023-01-24T18:19:08;94.45;;;34.72;;
38557;SDS011;24333;42.626;23.308;2023-01-24T18:21:34;71.38;;;24.50;;
38557;SDS011;24333;42.626;23.308;2023-01-24T18:24:00;44.33;;;16.83;;
38557;SDS011;24333;42.626;23.308;2023-01-24T18:26:27;45.67;;;16.10;;
38557;SDS011;24333;42.626;23.308;2023-01-24T18:28:55;36.00;;;15.55;;
38557;SDS011;24333;42.626;23.308;2023-01-24T18:31:22;41.42;;;15.07;;
38557;SDS011;24333;42.626;23.308;2023-01-24T18:33:51;70.97;;;22.65;;
38557;SDS011;24333;42.626;23.308;2023-01-24T18:36:18;48.50;;;17.23;;
38557;SDS011;24333;42.626;23.308;2023-01-24T18:38:44;33.78;;;11.70;;
38557;SDS011;24333;42.626;23.308;2023-01-24T18:41:11;71.50;;;20.67;;
38557;SDS011;24333;42.626;23.308;2023-01-24T18:43:38;97.10;;;26.83;;
38557;SDS011;24333;42.626;23.308;2023-01-24T18:46:05;69.40;;;19.08;;
38557;SDS011;24333;42.626;23.308;2023-01-24T18:48:36;54.53;;;16.40;;
38557;SDS011;24333;42.626;23.308;2023-01-24T18:51:05;56.97;;;14.98;;
38557;SDS011;24333;42.626;23.308;2023-01-24T18:53:32;34.28;;;11.68;;
38557;SDS011;24333;42.626;23.308;2023-01-24T18:55:58;32.53;;;13.57;;
38557;SDS011;24333;42.626;23.308;2023-01-24T18:58:31;81.65;;;18.73;;
38557;SDS011;24333;42.626;23.308;2023-01-24T19:00:59;37.38;;;12.75;;
38557;SDS011;24333;42.626;23.308;2023-01-24T19:03:25;28.00;;;10.75;;
38557;SDS011;24333;42.626;23.308;2023-01-24T19:05:50;37.92;;;10.50;;
38557;SDS011;24333;42.626;23.308;2023-01-24T19:08:17;36.80;;;11.13;;
38557;SDS011;24333;42.626;23.308;2023-01-24T19:10:43;39.70;;;12.60;;
38557;SDS011;24333;42.626;23.308;2023-01-24T19:13:08;41.17;;;10.70;;
38557;SDS011;24333;42.626;23.308;2023-01-24T19:15:34;42.03;;;10.00;;
38557;SDS011;24333;42.626;23.308;2023-01-24T19:18:00;61.85;;;15.93;;
38557;SDS011;24333;42.626;23.308;2023-01-24T19:20:33;49.25;;;13.00;;
38557;SDS011;24333;42.626;23.308;2023-01-24T19:22:59;37.15;;;9.93;;
38557;SDS011;24333;42.626;23.308;2023-01-24T19:25:25;24.48;;;8.13;;
38557;SDS011;24333;42.626;23.308;2023-01-24T19:27:50;25.80;;;7.97;;
38557;SDS011;24333;42.626;23.308;2023-01-24T19:30:16;36.47;;;10.77;;
38557;SDS011;24333;42.626;23.308;2023-01-24T19:32:43;20.05;;;8.63;;
38557;SDS011;24333;42.626;23.308;2023-01-24T19:35:10;26.08;;;10.20;;
38557;SDS011;24333;42.626;23.308;2023-01-24T19:37:36;19.92;;;8.50;;
38557;SDS011;24333;42.626;23.308;2023-01-24T19:40:02;18.63;;;8.32;;
38557;SDS011;24333;42.626;23.308;2023-01-24T19:42:28;35.72;;;10.98;;
38557;SDS011;24333;42.626;23.308;2023-01-24T19:44:55;25.77;;;9.13;;
38557;SDS011;24333;42.626;23.308;2023-01-24T19:47:20;25.35;;;10.43;;
38557;SDS011;24333;42.626;23.308;2023-01-24T19:49:46;21.77;;;8.18;;
38557;SDS011;24333;42.626;23.308;2023-01-24T19:52:11;27.75;;;11.52;;
38557;SDS011;24333;42.626;23.308;2023-01-24T19:54:38;24.80;;;9.30;;
38557;SDS011;24333;42.626;23.308;2023-01-24T19:57:03;22.90;;;10.18;;
38557;SDS011;24333;42.626;23.308;2023-01-24T19:59:29;25.95;;;9.20;;
38557;SDS011;24333;42.626;23.308;2023-01-24T20:01:55;22.70;;;8.00;;
38557;SDS011;24333;42.626;23.308;2023-01-24T20:04:22;27.65;;;9.45;;
38557;SDS011;24333;42.626;23.308;2023-01-24T20:06:52;38.67;;;11.63;;
38557;SDS011;24333;42.626;23.308;2023-01-24T20:09:18;37.17;;;10.95;;
38557;SDS011;24333;42.626;23.308;2023-01-24T20:11:44;38.88;;;12.77;;
38557;SDS011;24333;42.626;23.308;2023-01-24T20:14:10;22.45;;;9.00;;
38557;SDS011;24333;42.626;23.308;2023-01-24T20:16:37;22.48;;;8.38;;
38557;SDS011;24333;42.626;23.308;2023-01-24T20:19:03;26.95;;;9.07;;
38557;SDS011;24333;42.626;23.308;2023-01-24T20:21:32;32.08;;;10.43;;
38557;SDS011;24333;42.626;23.308;2023-01-24T20:23:59;39.80;;;11.93;;
38557;SDS011;24333;42.626;23.308;2023-01-24T20:26:26;28.88;;;10.93;;
38557;SDS011;24333;42.626;23.308;2023-01-24T20:28:53;25.15;;;8.75;;
38557;SDS011;24333;42.626;23.308;2023-01-24T20:31:19;22.48;;;7.97;;
38557;SDS011;24333;42.626;23.308;2023-01-24T20:33:48;23.83;;;8.98;;
38557;SDS011;24333;42.626;23.308;2023-01-24T20:36:13;21.27;;;7.63;;
38557;SDS011;24333;42.626;23.308;2023-01-24T20:38:41;26.70;;;9.15;;
38557;SDS011;24333;42.626;23.308;2023-01-24T20:41:16;21.60;;;8.80;;
38557;SDS011;24333;42.626;23.308;2023-01-24T20:43:43;21.38;;;8.73;;
38557;SDS011;24333;42.626;23.308;2023-01-24T20:46:14;29.17;;;8.57;;
38557;SDS011;24333;42.626;23.308;2023-01-24T20:48:45;27.65;;;9.68;;
38557;SDS011;24333;42.626;23.308;2023-01-24T20:51:12;23.63;;;9.77;;
38557;SDS011;24333;42.626;23.308;2023-01-24T20:53:37;24.13;;;9.88;;
38557;SDS011;24333;42.626;23.308;2023-01-24T20:56:04;32.40;;;9.35;;
38557;SDS011;24333;42.626;23.308;2023-01-24T20:58:31;28.10;;;10.10;;
38557;SDS011;24333;42.626;23.308;2023-01-24T21:01:02;41.00;;;12.15;;
38557;SDS011;24333;42.626;23.308;2023-01-24T21:03:37;31.85;;;11.95;;
38557;SDS011;24333;42.626;23.308;2023-01-24T21:06:04;48.40;;;13.00;;
38557;SDS011;24333;42.626;23.308;2023-01-24T21:08:33;32.15;;;10.32;;
38557;SDS011;24333;42.626;23.308;2023-01-24T21:11:01;27.38;;;8.45;;
38557;SDS011;24333;42.626;23.308;2023-01-24T21:13:31;17.40;;;6.65;;
38557;SDS011;24333;42.626;23.308;2023-01-24T21:16:08;27.08;;;8.05;;
38557;SDS011;24333;42.626;23.308;2023-01-24T21:18:35;23.42;;;8.02;;
38557;SDS011;24333;42.626;23.308;2023-01-24T21:21:01;25.15;;;7.38;;
38557;SDS011;24333;42.626;23.308;2023-01-24T21:23:27;23.90;;;7.65;;
38557;SDS011;24333;42.626;23.308;2023-01-24T21:25:53;23.80;;;7.75;;
38557;SDS011;24333;42.626;23.308;2023-01-24T21:28:22;28.23;;;8.90;;
38557;SDS011;24333;42.626;23.308;2023-01-24T21:30:59;21.40;;;8.55;;
38557;SDS011;24333;42.626;23.308;2023-01-24T21:33:29;18.92;;;7.47;;
38557;SDS011;24333;42.626;23.308;2023-01-24T21:35:59;15.80;;;6.85;;
38557;SDS011;24333;42.626;23.308;2023-01-24T21:38:26;17.90;;;7.28;;
38557;SDS011;24333;42.626;23.308;2023-01-24T21:41:02;28.50;;;8.40;;
38557;SDS011;24333;42.626;23.308;2023-01-24T21:43:48;21.58;;;7.28;;
38557;SDS011;24333;42.626;23.308;2023-01-24T21:46:15;26.83;;;9.07;;
38557;SDS011;24333;42.626;23.308;2023-01-24T21:48:41;26.40;;;8.77;;
38557;SDS011;24333;42.626;23.308;2023-01-24T21:51:28;27.63;;;8.98;;
38557;SDS011;24333;42.626;23.308;2023-01-24T21:53:55;19.58;;;7.60;;
38557;SDS011;24333;42.626;23.308;2023-01-24T21:56:46;24.55;;;8.40;;
38557;SDS011;24333;42.626;23.308;2023-01-24T21:59:33;24.88;;;8.13;;
38557;SDS011;24333;42.626;23.308;2023-01-24T22:02:02;22.85;;;9.48;;
38557;SDS011;24333;42.626;23.308;2023-01-24T22:04:30;25.60;;;9.05;;
38557;SDS011;24333;42.626;23.308;2023-01-24T22:06:57;23.30;;;8.90;;
38557;SDS011;24333;42.626;23.308;2023-01-24T22:09:23;26.15;;;8.93;;
